KLWB/LWB METAR and TAF weather

Enter ICAO airport designator
Station Type Date Time Source
KLWB METAR 2021/09/25 12:55 UTC NOAA

KLWB 251255Z AUTO 00000KT M1/4SM FG OVC001 06/06 A3015 RMK AO2 T00590059


Station Type Date Time Source
KLWB Decoded METAR 2021/09/25 12:55 UTC NOAA

Lewisburg / Greenbrier, WV, United States (KLWB) 37-52N 080-24W
Sep 25, 2021 - 08:55 AM EDT / 2021.09.25 1255 UTC
Wind: Calm:0
Visibility: less than 1/4 mile(s):1
Sky conditions: overcast
Weather: fog
Temperature: 42.6 F (5.9 C)
Dew Point: 42.6 F (5.9 C)
Relative Humidity: 100%
Pressure (altimeter): 30.15 in. Hg (1020 hPa)
ob: KLWB 251255Z AUTO 00000KT M1/4SM FG OVC001 06/06 A3015 RMK AO2 T00590059
cycle: 13

Station Type Date Time Source
KLWB TAF 2021/09/25 13:06 UTC NOAA

TAF
AMD KLWB 251302Z 2513/2612 00000KT 0SM FG OVC001
FM251400 25003KT P6SM SCT250
FM251800 25007KT P6SM SCT250
FM260300 30004KT P6SM BKN025
FM261000 00000KT 1/4SM FG OVC001

Example: see airport list